| time (UTC) | temp F | wind direction | speed MPH | gust MPH | rain 1hr in | rain 24hr in | rain mn in | humidity % | barometer mb |
| 20260831011007 | 61 | 284 | 6.0 | 21.0 | 0.02 | 0.18 | 0.12 | 88 | 1006.6 |
| 20260831010005 | 62 | 290 | 5.0 | 21.0 | 0.00 | 0.16 | 0.09 | 88 | 1006.6 |
| 20260831005005 | 62 | 330 | 5.0 | 15.0 | 0.00 | 0.16 | 0.09 | 87 | 1006.4 |
| 20260831004005 | 62 | 281 | 5.0 | 16.0 | 0.00 | 0.16 | 0.09 | 88 | 1006.5 |
| 20260831003005 | 62 | 258 | 6.0 | 21.0 | 0.00 | 0.16 | 0.09 | 88 | 1006.3 |
| 20260831002005 | 62 | 244 | 3.0 | 15.0 | 0.00 | 0.16 | 0.09 | 90 | 1006.3 |
| 20260831001005 | 62 | 302 | 5.0 | 14.0 | 0.01 | 0.16 | 0.09 | 91 | 1006.3 |
| 20260831000005 | 62 | 235 | 6.0 | 17.0 | 0.09 | 0.16 | 0.09 | 91 | 1006.3 |
| 20260830235004 | 62 | 194 | 5.0 | 16.0 | 0.03 | 0.16 | 0.09 | 92 | 1006.3 |
| 20260830234005 | 62 | 230 | 6.0 | 16.0 | 0.09 | 0.16 | 0.09 | 92 | 1006.2 |
| 20260830232005 | 62 | 207 | 6.0 | 16.0 | 0.09 | 0.16 | 0.09 | 92 | 1006.4 |
| 20260830231005 | 62 | 214 | 5.0 | 17.0 | 0.09 | 0.15 | 0.09 | 92 | 1006.5 |
| 20260830225005 | 63 | 211 | 6.0 | 17.0 | 0.06 | 0.06 | 0.06 | 88 | 1007.1 |
| 20260830224005 | 64 | 162 | 5.0 | 17.0 | 0.01 | 0.01 | 0.01 | 83 | 1007.1 |
| 20260830221006 | 64 | 171 | 6.0 | 15.0 | 0.00 | 0.00 | 0.00 | 83 | 1007.5 |
| 20260830220005 | 64 | 172 | 3.0 | 20.0 | 0.00 | 0.00 | 0.00 | 83 | 1007.5 |
| 20260830215004 | 64 | 224 | 5.0 | 17.0 | 0.00 | 0.00 | 0.00 | 83 | 1007.5 |
| 20260830214005 | 64 | 209 | 3.0 | 12.0 | 0.00 | 0.00 | 0.00 | 83 | 1007.6 |
| 20260830213005 | 64 | 201 | 4.0 | 16.0 | 0.00 | 0.00 | 0.00 | 83 | 1007.6 |
| 20260830212004 | 64 | 204 | 5.0 | 12.0 | 0.00 | 0.00 | 0.00 | 82 | 1007.7 |
| 20260830211004 | 64 | 168 | 6.0 | 20.0 | 0.00 | 0.00 | 0.00 | 83 | 1007.7 |
| 20260830210006 | 64 | 204 | 5.0 | 16.0 | 0.00 | 0.00 | 0.00 | 84 | 1007.8 |
| 20260830205007 | 64 | 220 | 5.0 | 16.0 | 0.00 | 0.00 | 0.00 | 84 | 1007.7 |
| 20260830204004 | 64 | 214 | 3.0 | 12.0 | 0.00 | 0.00 | 0.00 | 84 | 1007.7 |
| 20260830203004 | 64 | 225 | 3.0 | 14.0 | 0.00 | 0.00 | 0.00 | 84 | 1007.8 |
| 20260830202005 | 64 | 258 | 3.0 | 14.0 | 0.00 | 0.00 | 0.00 | 83 | 1007.8 |
| 20260830201004 | 64 | 184 | 6.0 | 15.0 | 0.00 | 0.00 | 0.00 | 82 | 1007.6 |
| 20260830200007 | 64 | 239 | 6.0 | 14.0 | 0.00 | 0.00 | 0.00 | 83 | 1007.7 |
| 20260830195005 | 64 | 226 | 3.0 | 12.0 | 0.00 | 0.00 | 0.00 | 82 | 1007.7 |
| 20260830194004 | 64 | 225 | 5.0 | 20.0 | 0.00 | 0.00 | 0.00 | 82 | 1007.7 |
| 20260830193004 | 65 | 202 | 7.0 | 20.0 | 0.00 | 0.00 | 0.00 | 81 | 1007.7 |
| 20260830192004 | 65 | 188 | 6.0 | 22.0 | 0.00 | 0.00 | 0.00 | 81 | 1007.8 |
| 20260830191004 | 66 | 206 | 7.0 | 26.0 | 0.00 | 0.00 | 0.00 | 80 | 1007.5 |
| 20260830190004 | 66 | 165 | 5.0 | 12.0 | 0.00 | 0.00 | 0.00 | 82 | 1007.4 |
| 20260830184007 | 66 | 185 | 3.0 | 10.0 | 0.00 | 0.00 | 0.00 | 80 | 1007.6 |
| 20260830183004 | 66 | 161 | 3.0 | 12.0 | 0.00 | 0.00 | 0.00 | 80 | 1007.7 |
| 20260830182004 | 66 | 189 | 2.0 | 12.0 | 0.00 | 0.00 | 0.00 | 80 | 1007.6 |
| 20260830181004 | 66 | 196 | 4.0 | 14.0 | 0.00 | 0.00 | 0.00 | 79 | 1007.8 |
| 20260830180004 | 66 | 202 | 4.0 | 14.0 | 0.00 | 0.00 | 0.00 | 79 | 1008.1 |
| 20260830175006 | 66 | 194 | 2.0 | 10.0 | 0.00 | 0.00 | 0.00 | 79 | 1008.2 |
| 20260830174004 | 66 | 190 | 3.0 | 9.0 | 0.00 | 0.00 | 0.00 | 79 | 1008.2 |
| 20260830173004 | 66 | 193 | 1.0 | 8.0 | 0.00 | 0.00 | 0.00 | 80 | 1008.3 |
| 20260830172004 | 66 | 211 | 3.0 | 8.0 | 0.00 | 0.00 | 0.00 | 79 | 1008.7 |
| 20260830171004 | 66 | 194 | 2.0 | 10.0 | 0.00 | 0.00 | 0.00 | 80 | 1008.7 |
| 20260830170004 | 67 | 196 | 5.0 | 12.0 | 0.00 | 0.00 | 0.00 | 81 | 1008.8 |
| 20260830165004 | 67 | 164 | 2.0 | 12.0 | 0.00 | 0.00 | 0.00 | 80 | 1008.7 |
| 20260830164004 | 67 | 183 | 3.0 | 12.0 | 0.00 | 0.00 | 0.00 | 79 | 1008.7 |
| 20260830163007 | 67 | 195 | 4.0 | 12.0 | 0.00 | 0.00 | 0.00 | 78 | 1008.8 |
| 20260830162004 | 67 | 199 | 3.0 | 12.0 | 0.00 | 0.00 | 0.00 | 78 | 1008.9 |
| 20260830161004 | 68 | 175 | 4.0 | 12.0 | 0.00 | 0.00 | 0.00 | 76 | 1009.0 |
| 20260830160004 | 68 | 143 | 5.0 | 15.0 | 0.00 | 0.00 | 0.00 | 74 | 1009.2 |
| 20260830155004 | 69 | 231 | 5.0 | 14.0 | 0.00 | 0.00 | 0.00 | 74 | 1009.2 |
| 20260830154004 | 69 | 195 | 5.0 | 18.0 | 0.00 | 0.00 | 0.00 | 74 | 1009.2 |
| 20260830153006 | 69 | 220 | 5.0 | 14.0 | 0.00 | 0.00 | 0.00 | 75 | 1009.3 |
| 20260830152006 | 70 | 172 | 2.0 | 14.0 | 0.00 | 0.00 | 0.00 | 75 | 1009.3 |
| 20260830151006 | 69 | 223 | 5.0 | 10.0 | 0.00 | 0.01 | 0.00 | 76 | 1009.3 |
| 20260830150006 | 68 | 236 | 3.0 | 12.0 | 0.00 | 0.01 | 0.00 | 75 | 1009.4 |
| 20260830145006 | 68 | 198 | 5.0 | 20.0 | 0.00 | 0.01 | 0.00 | 77 | 1009.6 |
| 20260830143006 | 68 | 211 | 6.0 | 14.0 | 0.00 | 0.01 | 0.00 | 78 | 1009.7 |
| 20260830142005 | 68 | 204 | 5.0 | 15.0 | 0.00 | 0.01 | 0.00 | 80 | 1009.7 |
| 20260830141006 | 68 | 206 | 6.0 | 15.0 | 0.00 | 0.01 | 0.00 | 79 | 1009.7 |
| 20260830140006 | 68 | 185 | 5.0 | 12.0 | 0.00 | 0.01 | 0.00 | 79 | 1009.7 |
| 20260830135006 | 69 | 215 | 5.0 | 14.0 | 0.00 | 0.01 | 0.00 | 76 | 1009.9 |
| 20260830134006 | 69 | 268 | 5.0 | 15.0 | 0.00 | 0.01 | 0.00 | 76 | 1009.9 |
| 20260830132006 | 69 | 189 | 6.0 | 12.0 | 0.00 | 0.01 | 0.00 | 76 | 1010.1 |
| 20260830131006 | 69 | 227 | 5.0 | 12.0 | 0.00 | 0.01 | 0.00 | 77 | 1010.2 |
| 20260830130006 | 68 | 220 | 4.0 | 15.0 | 0.00 | 0.02 | 0.00 | 78 | 1010.3 |
| 20260830125006 | 68 | 185 | 5.0 | 14.0 | 0.00 | 0.02 | 0.00 | 80 | 1010.3 |
| 20260830124006 | 68 | 200 | 3.0 | 14.0 | 0.00 | 0.02 | 0.00 | 78 | 1010.3 |
| 20260830123004 | 68 | 197 | 6.0 | 14.0 | 0.00 | 0.02 | 0.00 | 77 | 1010.4 |
| 20260830122006 | 68 | 218 | 3.0 | 15.0 | 0.00 | 0.02 | 0.00 | 78 | 1010.4 |
| 20260830121006 | 69 | 205 | 6.0 | 15.0 | 0.00 | 0.02 | 0.00 | 77 | 1010.5 |
| 20260830120006 | 69 | 226 | 5.0 | 14.0 | 0.00 | 0.02 | 0.00 | 77 | 1010.5 |
| 20260830115006 | 68 | 261 | 2.0 | 14.0 | 0.00 | 0.02 | 0.00 | 78 | 1010.4 |
| 20260830114006 | 68 | 198 | 5.0 | 14.0 | 0.00 | 0.02 | 0.00 | 78 | 1010.5 |
| 20260830113006 | 67 | 241 | 5.0 | 12.0 | 0.00 | 0.02 | 0.00 | 80 | 1010.5 |
| 20260830112005 | 67 | 230 | 4.0 | 12.0 | 0.00 | 0.02 | 0.00 | 81 | 1010.6 |
| 20260830111006 | 67 | 199 | 5.0 | 12.0 | 0.00 | 0.02 | 0.00 | 82 | 1010.8 |
| 20260830110006 | 67 | 237 | 3.0 | 12.0 | 0.00 | 0.02 | 0.00 | 82 | 1010.8 |
| 20260830105006 | 67 | 206 | 3.0 | 14.0 | 0.00 | 0.03 | 0.00 | 82 | 1010.8 |
| 20260830104006 | 67 | 208 | 3.0 | 14.0 | 0.00 | 0.03 | 0.00 | 82 | 1010.8 |
| 20260830103007 | 68 | 174 | 3.0 | 12.0 | 0.00 | 0.04 | 0.00 | 81 | 1010.9 |
| 20260830102006 | 67 | 223 | 5.0 | 14.0 | 0.00 | 0.04 | 0.00 | 82 | 1010.9 |
| 20260830101006 | 67 | 205 | 4.0 | 14.0 | 0.00 | 0.05 | 0.00 | 83 | 1011.0 |
| 20260830100005 | 67 | 217 | 2.0 | 14.0 | 0.00 | 0.06 | 0.00 | 84 | 1011.2 |
| 20260830095006 | 67 | 224 | 4.0 | 14.0 | 0.00 | 0.06 | 0.00 | 82 | 1011.2 |
| 20260830094005 | 68 | 168 | 2.0 | 10.0 | 0.00 | 0.06 | 0.00 | 81 | 1011.1 |
| 20260830093006 | 68 | 227 | 5.0 | 10.0 | 0.00 | 0.07 | 0.00 | 79 | 1011.2 |
| 20260830092005 | 68 | 209 | 4.0 | 14.0 | 0.00 | 0.10 | 0.00 | 79 | 1011.2 |
| 20260830091007 | 67 | 207 | 2.0 | 12.0 | 0.00 | 0.12 | 0.00 | 79 | 1011.2 |
| 20260830084006 | 67 | 210 | 2.0 | 8.0 | 0.00 | 0.19 | 0.00 | 81 | 1011.2 |
| 20260830083005 | 67 | 237 | 2.0 | 8.0 | 0.00 | 0.20 | 0.00 | 81 | 1011.2 |
| 20260830081005 | 66 | 245 | 2.0 | 6.0 | 0.00 | 0.25 | 0.00 | 84 | 1011.1 |
| 20260830080006 | 65 | 194 | 4.0 | 9.0 | 0.00 | 0.29 | 0.00 | 83 | 1011.2 |
| 20260830075006 | 65 | 222 | 2.0 | 12.0 | 0.00 | 0.33 | 0.00 | 84 | 1011.1 |
| 20260830074005 | 65 | 250 | 3.0 | 8.0 | 0.00 | 0.39 | 0.00 | 84 | 1011.0 |
| 20260830073005 | 65 | 259 | 3.0 | 12.0 | 0.00 | 0.42 | 0.00 | 85 | 1011.0 |
| 20260830072005 | 65 | 221 | 3.0 | 9.0 | 0.00 | 0.43 | 0.00 | 86 | 1011.1 |
| 20260830070005 | 64 | 253 | 2.0 | 10.0 | 0.00 | 0.45 | 0.00 | 88 | 1010.9 |
| 20260830065005 | 63 | 250 | 2.0 | 10.0 | 0.00 | 0.46 | 0.00 | 89 | 1010.8 |
| 20260830064007 | 63 | 243 | 1.0 | 6.0 | 0.00 | 0.46 | 0.00 | 89 | 1010.8 |
| 20260830061007 | 62 | 331 | 1.0 | 5.0 | 0.00 | 0.46 | 0.00 | 90 | 1010.6 |
| 20260830060005 | 61 | 318 | 2.0 | 3.0 | 0.00 | 0.46 | 0.00 | 90 | 1010.4 |
| 20260830055005 | 61 | 242 | 1.0 | 3.0 | 0.00 | 0.46 | 0.00 | 89 | 1010.4 |
| 20260830054005 | 61 | 277 | 1.0 | 3.0 | 0.00 | 0.46 | 0.00 | 89 | 1010.5 |
| 20260830053005 | 61 | 286 | 1.0 | 2.0 | 0.00 | 0.46 | 0.00 | 88 | 1010.4 |
| 20260830052004 | 61 | 286 | 0.0 | 6.0 | 0.00 | 0.46 | 0.00 | 88 | 1010.4 |
| 20260830051005 | 61 | 289 | 2.0 | 7.0 | 0.00 | 0.46 | 0.00 | 87 | 1010.3 |
| 20260830050005 | 61 | 315 | 2.0 | 9.0 | 0.00 | 0.46 | 0.00 | 88 | 1010.2 |
| 20260830045005 | 62 | 304 | 3.0 | 9.0 | 0.00 | 0.46 | 0.00 | 88 | 1010.3 |
| 20260830044005 | 62 | 300 | 3.0 | 8.0 | 0.00 | 0.46 | 0.00 | 89 | 1010.4 |
| 20260830042005 | 62 | 302 | 1.0 | 9.0 | 0.00 | 0.46 | 0.00 | 89 | 1010.2 |
| 20260830041005 | 62 | 294 | 1.0 | 7.0 | 0.00 | 0.46 | 0.00 | 89 | 1010.2 |
| 20260830040007 | 62 | 289 | 3.0 | 7.0 | 0.00 | 0.46 | 0.00 | 89 | 1010.1 |
| 20260830035005 | 62 | 298 | 2.0 | 7.0 | 0.00 | 0.46 | 0.00 | 89 | 1010.1 |
| 20260830034005 | 62 | 301 | 3.0 | 9.0 | 0.00 | 0.46 | 0.00 | 88 | 1010.1 |
| 20260830032005 | 62 | 309 | 3.0 | 8.0 | 0.00 | 0.46 | 0.00 | 88 | 1010.0 |
| 20260830031007 | 63 | 301 | 4.0 | 10.0 | 0.00 | 0.46 | 0.00 | 88 | 1009.9 |
| 20260830030005 | 63 | 279 | 3.0 | 10.0 | 0.00 | 0.46 | 0.00 | 88 | 1010.0 |
| 20260830025006 | 63 | 310 | 3.0 | 12.0 | 0.00 | 0.46 | 0.00 | 88 | 1009.8 |
| 20260830024005 | 63 | 297 | 4.0 | 10.0 | 0.00 | 0.46 | 0.00 | 88 | 1009.8 |
| 20260830023005 | 63 | 302 | 4.0 | 12.0 | 0.00 | 0.46 | 0.00 | 87 | 1009.8 |
| 20260830022005 | 63 | 303 | 5.0 | 10.0 | 0.00 | 0.46 | 0.00 | 87 | 1009.7 |
| 20260830021005 | 63 | 293 | 5.0 | 10.0 | 0.00 | 0.46 | 0.00 | 87 | 1009.6 |
| 20260830020005 | 63 | 298 | 5.0 | 9.0 | 0.00 | 0.46 | 0.00 | 87 | 1009.6 |
| 20260830015006 | 64 | 299 | 4.0 | 10.0 | 0.00 | 0.46 | 0.00 | 87 | 1009.6 |
| 20260830014005 | 64 | 313 | 3.0 | 12.0 | 0.00 | 0.46 | 0.00 | 88 | 1009.5 |
| 20260830013005 | 64 | 276 | 3.0 | 12.0 | 0.00 | 0.46 | 0.00 | 88 | 1009.5 |
| 20260830012005 | 64 | 301 | 5.0 | 12.0 | 0.00 | 0.46 | 0.00 | 87 | 1009.3 |